Impacts METAR Board
IDs:

KBWI - Baltimore-Washington, MD, US

Updated at: 0100 UTC 31 May 2020
Potential Impact None Slight Moderate High
Time 30/13Z 30/14Z 30/15Z 30/16Z 30/17Z 30/18Z 30/19Z 30/20Z 30/21Z 30/22Z 30/23Z 31/00Z 31/01Z
Temp75 76 78 80 82 83 83 83 83 81 82 77 74
Dewpt59 58 55 49 46 45 44 48 49 50 50 52 52
Altim29.97 29.97 29.97 29.96 29.95 29.94 29.92 29.92 29.91 29.90 29.91 29.92 29.94
VIS10 10 10 10 10 10 10 10 10 10 10 10 10
CIG130 130 250 250 -- -- -- -- -- -- -- -- --
CoverBKNBKNBKNBKNSCTSCTSCTSCTSCTSCTSCTFEWSCT
FltCatVFRVFRVFRVFRVFRVFRVFRVFRVFRVFRVFRVFRVFR
WX--------------------------
WDir330330350330360360320230270260320300310
WSpd9 11 5 6 7 10 7 7 7 7 7 3 4
WGst-- -- -- -- 15 16 -- -- -- -- -- -- --
Raw hourly METARs
KBWI 301254Z 33009KT 10SM SCT033 BKN130 BKN250 24/15 A2997 RMK AO2 SLP147 T02390150
KBWI 301354Z 33011KT 10SM SCT033 BKN130 BKN250 24/14 A2997 RMK AO2 SLP146 T02440144
KBWI 301454Z 35005KT 10SM SCT035 SCT130 BKN250 26/13 A2997 RMK AO2 SLP146 T02560128 51003
KBWI 301554Z 33006KT 10SM FEW035 SCT110 BKN250 27/09 A2996 RMK AO2 SLP142 T02670094
KBWI 301654Z 36007G15KT 310V020 10SM FEW037 SCT110 SCT250 28/08 A2995 RMK AO2 SLP139 T02780078
KBWI 301754Z 36010G16KT 10SM FEW037 SCT110 SCT250 28/07 A2994 RMK AO2 SLP136 T02830072 10283 20228 56010
KBWI 301854Z 32007KT 300V360 10SM SCT050 SCT110 28/07 A2992 RMK AO2 SLP131 T02830067
KBWI 301954Z 23007KT 10SM SCT085 SCT250 28/09 A2992 RMK AO2 SLP130 CB DSNT S MOV E T02830089
KBWI 302054Z 27007KT 10SM SCT085 SCT250 28/09 A2991 RMK AO2 SLP128 CB DSNT S MOV E T02830094 56008
KBWI 302154Z 26007KT 10SM FEW085 SCT100 SCT250 27/10 A2990 RMK AO2 SLP125 TCU DSNT S T02720100
KBWI 302254Z 32007KT 10SM FEW080 SCT100 SCT250 28/10 A2991 RMK AO2 SLP125 T02780100
KBWI 302354Z 30003KT 10SM FEW080 FEW100 FEW200 FEW250 25/11 A2992 RMK AO2 SLP130 T02500111 10294 20250 53002
KBWI 310054Z 31004KT 10SM SCT085 SCT100 SCT250 23/11 A2994 RMK AO2 SLP135 T02330111



Page loaded:  01:40 UTC  |   06:40 PM Pacific  |   07:40 PM Mountain  |   08:40 PM Central  |   09:40 PM Eastern

 

ADVISORIES

FORECASTS

FORECASTS

OBSERVATIONS

USER TOOLS

ABOUT US